Time;durP1;ratioP1;P1;durP2;ratioP2;P2;SDS_P1;SDS_P2;PMS_P1;PMS_P2;Temp;Humidity;BMP_temperature;BMP_pressure;BME280_temperature;BME280_humidity;BME280_pressure;Samples;Min_cycle;Max_cycle;Signal;HPM_P1;HPM_P2
2023/09/27 09:09:14;;;;;;;;;;;;;;;20.84;80.26;101560.62;1806590;77;20167;-68
2023/09/27 09:11:34;;;;;;;;;;;;;;;20.82;80.19;101554.59;1803455;78;20150;-68
2023/09/27 09:14:05;;;;;;;;;;;;;;;20.77;80.17;101551.95;1808143;77;20134;-71
2023/09/27 09:16:47;;;;;;;;;;;;;;;20.71;80.71;101551.08;1806771;77;20208;-70
2023/09/27 09:19:22;;;;;;;;;;;;;;;20.66;81.43;101550.58;1809193;77;20199;-68
2023/09/27 09:27:08;;;;;;;;;;;;;;;20.58;81.72;101540.55;1817069;78;20152;-73
2023/09/27 09:29:52;;;;;;;;;;;;;;;20.53;80.98;101546.18;1815972;78;20399;-72
2023/09/27 09:32:22;;;;;;;;;;;;;;;20.44;79.98;101544.20;1817317;78;20130;-69
2023/09/27 09:34:50;;;;;;;;;;;;;;;20.31;80.35;101533.67;1811415;78;20247;-68
2023/09/27 09:37:22;;;;;;;;;;;;;;;20.24;80.77;101531.58;1812791;77;20396;-69
2023/09/27 09:39:50;;;;;;;;;;;;;;;20.21;80.95;101534.44;1815869;78;20459;-71
2023/09/27 09:42:32;;;;;;;;;;;;;;;20.19;80.85;101535.03;1816679;77;20102;-74
2023/09/27 09:45:12;;;;;;;;;;;;;;;20.17;81.14;101530.33;1816525;77;20106;-68
2023/09/27 09:47:31;;;;;;;;;;;;;;;20.15;81.39;101533.56;1808027;78;20106;-67
2023/09/27 09:49:58;;;;;;;;;;;;;;;20.15;81.56;101530.91;1807764;78;20494;-71
2023/09/27 09:52:31;;;;;;;;;;;;;;;20.14;81.46;101530.07;1810202;78;20127;-73
2023/09/27 09:54:57;;;;;;;;;;;;;;;20.12;81.46;101528.02;1810514;78;20115;-71
2023/09/27 09:57:28;;;;;;;;;;;;;;;20.13;81.71;101527.54;1778694;78;20174;-69
2023/09/27 09:59:58;;;;;;;;;;;;;;;20.14;81.77;101522.14;1812635;78;20452;-68
2023/09/27 10:02:29;;;;;;;;;;;;;;;20.16;81.28;101520.70;1804996;77;20210;-69
2023/09/27 10:05:06;;;;;;;;;;;;;;;20.18;80.84;101521.44;1816741;78;20161;-69
2023/09/27 10:07:37;;;;;;;;;;;;;;;20.18;80.23;101516.15;1810923;78;20141;-69
2023/09/27 10:10:05;;;;;;;;;;;;;;;20.18;79.80;101518.31;1813249;78;20528;-69
2023/09/27 10:12:31;;;;;;;;;;;;;;;20.18;79.17;101520.12;1794367;79;20098;-68
2023/09/27 10:14:58;;;;;;;;;;;;;;;20.16;78.53;101514.94;1761213;81;20101;-70
2023/09/27 10:17:26;;;;;;;;;;;;;;;20.14;78.19;101508.07;1791846;80;20140;-71
2023/09/27 10:20:13;;;;;;;;;;;;;;;20.13;77.98;101505.06;1792288;80;20153;-70
2023/09/27 10:22:45;;;;;;;;;;;;;;;20.14;77.50;101510.72;1794349;80;20455;-70
2023/09/27 10:25:27;;;;;;;;;;;;;;;20.13;77.63;101506.38;1786024;80;20106;-68
2023/09/27 10:28:06;;;;;;;;;;;;;;;20.13;76.78;101513.84;1782430;80;20134;-69
2023/09/27 10:30:45;;;;;;;;;;;;;;;20.12;75.57;101503.37;1721697;83;20130;-71
2023/09/27 10:33:24;;;;;;;;;;;;;;;20.11;75.51;101506.97;1748256;82;20137;-69
2023/09/27 10:59:31;;;;;;;;;;;;;;;20.17;75.41;101494.63;1729918;83;20123;-69
2023/09/27 11:02:02;;;;;;;;;;;;;;;20.17;75.05;101493.30;1733691;83;20124;-69
2023/09/27 11:04:35;;;;;;;;;;;;;;;20.17;73.70;101494.63;1733957;83;20114;-72
2023/09/27 11:07:03;;;;;;;;;;;;;;;20.17;72.99;101489.34;1733508;83;20794;-68
2023/09/27 11:09:30;;;;;;;;;;;;;;;20.17;72.42;101482.72;1733341;83;20106;-69
2023/09/27 11:11:59;;;;;;;;;;;;;;;20.16;72.45;101483.67;1747858;80;20196;-71
2023/09/27 11:14:32;;;;;;;;;;;;;;;20.15;72.56;101479.34;1747069;80;20151;-70
2023/09/27 11:17:23;;;;;;;;;;;;;;;20.19;72.70;101475.52;1752550;81;20162;-70
2023/09/27 11:19:52;;;;;;;;;;;;;;;20.21;72.75;101467.84;1741840;81;20123;-69
2023/09/27 11:22:26;;;;;;;;;;;;;;;20.25;72.80;101472.42;1741574;81;20163;-71
2023/09/27 11:24:53;;;;;;;;;;;;;;;20.29;72.72;101465.95;1747541;81;20167;-71
2023/09/27 11:27:20;;;;;;;;;;;;;;;20.30;72.98;101465.84;1748575;81;20105;-69
2023/09/27 11:29:53;;;;;;;;;;;;;;;20.33;73.33;101462.12;1764434;81;20139;-68
2023/09/27 11:32:20;;;;;;;;;;;;;;;20.35;73.34;101464.19;1751834;81;20115;-68
2023/09/27 11:34:56;;;;;;;;;;;;;;;20.38;73.38;101464.47;1747554;81;20143;-71
2023/09/27 11:37:24;;;;;;;;;;;;;;;20.38;73.26;101466.63;1746518;82;20134;-73
2023/09/27 11:39:51;;;;;;;;;;;;;;;20.41;71.85;101476.95;1735350;82;20143;-70
2023/09/27 11:42:24;;;;;;;;;;;;;;;20.40;71.49;101464.69;1733817;83;20438;-72
2023/09/27 11:45:09;;;;;;;;;;;;;;;20.41;71.41;101462.41;1757439;81;20102;-73
2023/09/27 11:47:48;;;;;;;;;;;;;;;20.40;71.16;101455.42;1745430;81;20547;-73
2023/09/27 11:50:17;;;;;;;;;;;;;;;20.40;70.42;101455.91;1743658;82;20150;-70
2023/09/27 11:52:46;;;;;;;;;;;;;;;20.41;69.99;101457.59;1745762;82;20156;-70
2023/09/27 11:55:14;;;;;;;;;;;;;;;20.42;70.02;101454.83;1760159;81;20105;-71
2023/09/27 11:57:40;;;;;;;;;;;;;;;20.42;70.30;101454.83;1776738;80;20112;-71
2023/09/27 12:00:15;;;;;;;;;;;;;;;20.43;70.46;101450.39;1774683;81;20132;-72
2023/09/27 12:02:45;;;;;;;;;;;;;;;20.44;70.42;101448.95;1743608;82;20618;-69
2023/09/27 12:05:13;;;;;;;;;;;;;;;20.45;69.78;101446.67;1709909;82;20222;-66
2023/09/27 12:07:41;;;;;;;;;;;;;;;20.47;69.81;101446.55;1745520;82;20165;-68
2023/09/27 12:10:09;;;;;;;;;;;;;;;20.48;69.86;101449.09;1756892;81;20163;-69
2023/09/27 12:12:37;;;;;;;;;;;;;;;20.49;69.98;101440.67;1755682;81;20450;-71
2023/09/27 12:15:05;;;;;;;;;;;;;;;20.50;70.32;101439.71;1758849;81;20395;-69
2023/09/27 12:17:34;;;;;;;;;;;;;;;20.50;70.98;101439.23;1782744;80;20414;-69
2023/09/27 12:20:03;;;;;;;;;;;;;;;20.51;70.78;101443.56;1786566;80;20146;-67
2023/09/27 12:22:32;;;;;;;;;;;;;;;20.52;70.52;101428.05;1794488;80;20389;-72
